Time;durP1;ratioP1;P1;durP2;ratioP2;P2;SDS_P1;SDS_P2;PMS_P1;PMS_P2;Temp;Humidity;BMP_temperature;BMP_pressure;BME280_temperature;BME280_humidity;BME280_pressure;Samples;Min_cycle;Max_cycle;Signal;HPM_P1;HPM_P2
2022/06/03 00:00:09;;;;;;;11.40;6.18;;;;;;;;;;5100725;28;20127;-65
2022/06/03 00:02:36;;;;;;;13.70;5.40;;;;;;;;;;5099999;28;20103;-65
2022/06/03 00:05:12;;;;;;;10.65;6.47;;;;;;;;;;5103882;28;20043;-65
2022/06/03 00:07:55;;;;;;;12.88;6.07;;;;;;;;;;5097023;28;20036;-65
2022/06/03 00:10:32;;;;;;;8.73;5.50;;;;;;;;;;5099323;28;20066;-65
2022/06/03 00:13:02;;;;;;;8.10;5.95;;;;;;;;;;5098048;28;20036;-65
2022/06/03 00:15:39;;;;;;;8.55;6.05;;;;;;;;;;5096464;28;20042;-65
2022/06/03 00:18:16;;;;;;;10.15;6.45;;;;;;;;;;5100610;28;20127;-65
2022/06/03 00:20:54;;;;;;;10.02;6.22;;;;;;;;;;5101327;28;20383;-64
2022/06/03 00:23:42;;;;;;;10.70;6.72;;;;;;;;;;5104496;28;20040;-65
2022/06/03 00:26:11;;;;;;;8.40;5.35;;;;;;;;;;5090237;28;20073;-67
2022/06/03 00:28:50;;;;;;;8.05;5.32;;;;;;;;;;5093685;28;20051;-65
2022/06/03 00:31:25;;;;;;;9.80;5.55;;;;;;;;;;5102661;28;20122;-65
2022/06/03 00:34:08;;;;;;;9.00;6.07;;;;;;;;;;5101108;28;20182;-65
2022/06/03 00:36:39;;;;;;;9.18;5.68;;;;;;;;;;5099062;28;20130;-65
2022/06/03 00:39:09;;;;;;;12.25;6.03;;;;;;;;;;5097221;28;20131;-65
2022/06/03 00:41:41;;;;;;;13.02;6.70;;;;;;;;;;5101108;28;20176;-65
2022/06/03 00:44:12;;;;;;;12.73;6.97;;;;;;;;;;5099390;28;20452;-65
2022/06/03 00:46:45;;;;;;;9.73;6.45;;;;;;;;;;5098867;28;20060;-65
2022/06/03 00:49:26;;;;;;;11.97;5.43;;;;;;;;;;5098864;28;20080;-65
2022/06/03 00:52:12;;;;;;;8.70;5.05;;;;;;;;;;5101505;28;20779;-65
2022/06/03 00:54:47;;;;;;;8.95;5.13;;;;;;;;;;5100915;28;20045;-65
2022/06/03 00:57:36;;;;;;;6.97;5.13;;;;;;;;;;5099127;28;20044;-65
2022/06/03 01:00:05;;;;;;;9.10;6.03;;;;;;;;;;5099301;28;20100;-65
2022/06/03 01:02:48;;;;;;;7.55;5.22;;;;;;;;;;5098521;28;20066;-65
2022/06/03 01:05:14;;;;;;;8.98;4.95;;;;;;;;;;5096524;28;20349;-65
2022/06/03 01:07:47;;;;;;;9.13;5.90;;;;;;;;;;5093222;28;20109;-66
2022/06/03 01:10:22;;;;;;;8.98;6.78;;;;;;;;;;5095233;28;20093;-65
2022/06/03 01:12:58;;;;;;;9.02;6.57;;;;;;;;;;5099655;28;20051;-65
2022/06/03 01:15:34;;;;;;;12.00;6.70;;;;;;;;;;5091415;28;20338;-65
2022/06/03 01:18:10;;;;;;;10.75;6.88;;;;;;;;;;5098990;28;20506;-65
2022/06/03 01:20:43;;;;;;;10.40;6.65;;;;;;;;;;5097461;28;20032;-65
2022/06/03 01:23:21;;;;;;;8.93;5.65;;;;;;;;;;5101803;28;20064;-65
2022/06/03 01:25:54;;;;;;;10.93;7.20;;;;;;;;;;5098464;28;20036;-65
2022/06/03 01:28:45;;;;;;;9.43;6.28;;;;;;;;;;5099834;28;20047;-65
2022/06/03 01:31:46;;;;;;;12.88;7.05;;;;;;;;;;5092383;28;20051;-65
2022/06/03 01:34:27;;;;;;;11.65;7.18;;;;;;;;;;5096937;28;20489;-65
2022/06/03 01:37:07;;;;;;;12.25;7.63;;;;;;;;;;5099006;28;20038;-65
2022/06/03 01:39:52;;;;;;;13.75;7.13;;;;;;;;;;5101110;28;20180;-65
2022/06/03 01:42:25;;;;;;;10.27;6.88;;;;;;;;;;5100575;28;20386;-65
2022/06/03 01:44:52;;;;;;;10.23;6.93;;;;;;;;;;5081034;28;20056;-65
2022/06/03 01:47:31;;;;;;;14.65;7.78;;;;;;;;;;5043044;28;20071;-65
2022/06/03 01:50:09;;;;;;;8.40;6.43;;;;;;;;;;5057812;28;20511;-65
2022/06/03 01:52:37;;;;;;;10.73;7.32;;;;;;;;;;5075312;28;20044;-65
2022/06/03 01:55:16;;;;;;;10.43;7.30;;;;;;;;;;5062795;28;20105;-65
2022/06/03 01:58:06;;;;;;;10.13;7.22;;;;;;;;;;5077743;28;20049;-65
2022/06/03 02:00:41;;;;;;;11.75;6.72;;;;;;;;;;5078216;28;20044;-65
2022/06/03 02:03:19;;;;;;;7.93;6.05;;;;;;;;;;5080147;28;20043;-65
2022/06/03 02:05:53;;;;;;;9.32;6.05;;;;;;;;;;5059992;28;20052;-65
2022/06/03 02:08:19;;;;;;;10.38;6.32;;;;;;;;;;5077934;28;20448;-65
2022/06/03 02:10:59;;;;;;;11.02;7.00;;;;;;;;;;5083828;28;20131;-65
2022/06/03 02:13:37;;;;;;;9.43;7.38;;;;;;;;;;5079473;28;20115;-66
2022/06/03 02:16:23;;;;;;;10.45;7.10;;;;;;;;;;5077841;28;20055;-65
2022/06/03 02:19:02;;;;;;;14.23;6.85;;;;;;;;;;5061241;28;20134;-65
2022/06/03 02:21:36;;;;;;;9.00;7.32;;;;;;;;;;5075498;28;20601;-65
2022/06/03 02:24:13;;;;;;;9.73;7.43;;;;;;;;;;5077326;28;20048;-65
2022/06/03 02:26:46;;;;;;;12.07;7.57;;;;;;;;;;5072863;28;20159;-65
2022/06/03 02:32:15;;;;;;;16.02;7.63;;;;;;;;;;5083303;28;20074;-65
2022/06/03 02:34:53;;;;;;;16.63;8.02;;;;;;;;;;5062777;28;20052;-65
2022/06/03 02:37:45;;;;;;;14.95;8.80;;;;;;;;;;5063433;28;20044;-65
2022/06/03 02:40:23;;;;;;;15.85;8.45;;;;;;;;;;5079282;28;20040;-65
2022/06/03 02:43:00;;;;;;;13.57;8.23;;;;;;;;;;5075554;28;20052;-65
2022/06/03 02:45:40;;;;;;;11.50;8.25;;;;;;;;;;5061449;28;20054;-65
2022/06/03 02:48:30;;;;;;;10.60;7.35;;;;;;;;;;5081528;28;20109;-66
2022/06/03 02:51:09;;;;;;;10.38;7.97;;;;;;;;;;5083468;28;20075;-65
2022/06/03 02:53:57;;;;;;;15.63;8.00;;;;;;;;;;5053997;28;20507;-65
2022/06/03 02:56:36;;;;;;;12.10;8.30;;;;;;;;;;5083680;28;20048;-65
2022/06/03 02:59:09;;;;;;;12.52;8.27;;;;;;;;;;5079289;28;20483;-65
2022/06/03 03:01:48;;;;;;;13.63;8.10;;;;;;;;;;5060066;28;20075;-65
2022/06/03 03:04:31;;;;;;;9.13;7.55;;;;;;;;;;5076971;28;20527;-65
2022/06/03 03:06:58;;;;;;;11.43;7.63;;;;;;;;;;5077345;28;20040;-65
2022/06/03 03:09:33;;;;;;;13.98;8.40;;;;;;;;;;5062061;28;20051;-65
2022/06/03 03:12:00;;;;;;;14.60;8.32;;;;;;;;;;5076335;28;20059;-65
2022/06/03 03:14:47;;;;;;;12.95;8.48;;;;;;;;;;5076415;28;20120;-65
2022/06/03 03:17:32;;;;;;;10.70;8.50;;;;;;;;;;5073109;28;20052;-65
2022/06/03 03:20:04;;;;;;;14.00;8.13;;;;;;;;;;5077814;28;20036;-65
2022/06/03 03:22:30;;;;;;;12.02;8.02;;;;;;;;;;5079525;28;20051;-65
2022/06/03 03:25:09;;;;;;;11.73;7.93;;;;;;;;;;5075304;28;20570;-65
2022/06/03 03:27:52;;;;;;;13.55;8.32;;;;;;;;;;5076092;28;20044;-65
2022/06/03 03:30:25;;;;;;;11.70;8.10;;;;;;;;;;5074901;28;20047;-65
2022/06/03 03:33:03;;;;;;;14.67;9.43;;;;;;;;;;5083156;28;20435;-65
2022/06/03 03:35:44;;;;;;;16.63;9.80;;;;;;;;;;5082908;28;20044;-65
2022/06/03 03:38:28;;;;;;;10.52;7.72;;;;;;;;;;5082397;28;20452;-65
2022/06/03 03:41:06;;;;;;;12.40;8.20;;;;;;;;;;5082860;28;20040;-65
2022/06/03 03:43:44;;;;;;;13.75;8.13;;;;;;;;;;5077893;28;21048;-65
2022/06/03 03:46:35;;;;;;;12.63;8.60;;;;;;;;;;5076276;28;20132;-65
2022/06/03 03:49:09;;;;;;;10.48;8.40;;;;;;;;;;5063641;28;20143;-65
2022/06/03 03:51:35;;;;;;;16.30;9.18;;;;;;;;;;5080964;28;20407;-65
2022/06/03 03:54:18;;;;;;;14.43;8.82;;;;;;;;;;5083610;28;20903;-65
2022/06/03 03:57:03;;;;;;;15.80;8.68;;;;;;;;;;5080780;28;20048;-65
2022/06/03 03:59:48;;;;;;;14.70;8.80;;;;;;;;;;5079286;28;20418;-65
2022/06/03 04:02:21;;;;;;;14.98;8.95;;;;;;;;;;5079384;28;20043;-65
2022/06/03 04:05:14;;;;;;;14.90;9.45;;;;;;;;;;5081003;28;20044;-65
2022/06/03 04:07:56;;;;;;;16.77;9.55;;;;;;;;;;5082144;28;20044;-65
2022/06/03 04:10:38;;;;;;;13.95;9.05;;;;;;;;;;5064882;28;20136;-65
2022/06/03 04:13:19;;;;;;;11.07;8.90;;;;;;;;;;5078422;28;20098;-65
2022/06/03 04:15:53;;;;;;;14.70;9.82;;;;;;;;;;5079973;28;20446;-65
2022/06/03 04:18:49;;;;;;;14.65;9.75;;;;;;;;;;5082425;28;20097;-65
2022/06/03 04:21:32;;;;;;;16.13;8.90;;;;;;;;;;5080133;28;20036;-65
2022/06/03 04:23:59;;;;;;;17.05;9.82;;;;;;;;;;5078610;28;20044;-65
2022/06/03 04:26:29;;;;;;;14.15;8.93;;;;;;;;;;5059376;28;20055;-66
2022/06/03 04:29:04;;;;;;;13.02;9.40;;;;;;;;;;5081155;28;20055;-65
2022/06/03 04:31:36;;;;;;;14.65;9.38;;;;;;;;;;5077049;28;20134;-65
2022/06/03 04:34:13;;;;;;;13.80;8.73;;;;;;;;;;5079535;28;20094;-65
2022/06/03 04:37:13;;;;;;;15.73;9.70;;;;;;;;;;5082025;28;20075;-65
2022/06/03 04:39:57;;;;;;;15.02;8.75;;;;;;;;;;5082608;28;20059;-65
2022/06/03 04:42:38;;;;;;;13.05;8.90;;;;;;;;;;5085332;28;20040;-65
2022/06/03 04:45:26;;;;;;;12.75;8.98;;;;;;;;;;5079244;28;20052;-65
2022/06/03 04:47:54;;;;;;;13.05;9.25;;;;;;;;;;5086066;28;20112;-64
2022/06/03 04:50:36;;;;;;;14.93;9.57;;;;;;;;;;5083720;28;20112;-64
2022/06/03 04:53:10;;;;;;;12.05;9.75;;;;;;;;;;5059198;28;20040;-65
2022/06/03 04:55:36;;;;;;;11.55;8.73;;;;;;;;;;5073421;28;20047;-65
2022/06/03 04:58:21;;;;;;;14.95;9.68;;;;;;;;;;5075346;28;20048;-65
2022/06/03 05:01:05;;;;;;;14.38;9.70;;;;;;;;;;5078217;28;20113;-65
2022/06/03 05:03:53;;;;;;;17.42;9.77;;;;;;;;;;5059996;28;20519;-65
2022/06/03 05:06:20;;;;;;;16.02;8.88;;;;;;;;;;5068938;28;20126;-64
2022/06/03 05:09:05;;;;;;;14.30;9.65;;;;;;;;;;5058423;28;20052;-64
2022/06/03 05:11:34;;;;;;;14.88;8.55;;;;;;;;;;5087351;28;20051;-64
2022/06/03 05:14:19;;;;;;;12.45;8.30;;;;;;;;;;5085800;28;20043;-64
2022/06/03 05:16:45;;;;;;;10.25;7.70;;;;;;;;;;5086081;28;20431;-64
2022/06/03 05:19:21;;;;;;;17.35;8.35;;;;;;;;;;5082797;28;20449;-64
2022/06/03 05:22:05;;;;;;;13.05;8.75;;;;;;;;;;5083340;28;20129;-64
2022/06/03 05:24:31;;;;;;;16.35;8.43;;;;;;;;;;5081861;28;20039;-64
2022/06/03 05:27:01;;;;;;;18.73;8.20;;;;;;;;;;5090399;28;20395;-65
2022/06/03 05:29:28;;;;;;;13.68;8.35;;;;;;;;;;5089416;28;20403;-65
2022/06/03 05:32:15;;;;;;;11.02;7.70;;;;;;;;;;5087206;28;20127;-64
2022/06/03 05:34:52;;;;;;;15.32;8.25;;;;;;;;;;5086748;28;20492;-64
2022/06/03 05:37:36;;;;;;;14.52;8.45;;;;;;;;;;5086340;28;20152;-64
2022/06/03 05:40:12;;;;;;;12.98;8.50;;;;;;;;;;5069688;28;20047;-64
2022/06/03 05:42:44;;;;;;;12.35;7.65;;;;;;;;;;5087537;28;20087;-64
2022/06/03 05:45:28;;;;;;;20.92;8.25;;;;;;;;;;5086187;28;20084;-65
2022/06/03 05:47:56;;;;;;;12.00;7.07;;;;;;;;;;5067679;28;20486;-64
2022/06/03 05:50:29;;;;;;;11.77;7.30;;;;;;;;;;5086562;28;20475;-65
2022/06/03 05:53:09;;;;;;;12.23;6.65;;;;;;;;;;5083757;28;20151;-65
2022/06/03 05:55:41;;;;;;;11.07;6.38;;;;;;;;;;5082488;28;20054;-65
2022/06/03 05:58:10;;;;;;;8.65;6.00;;;;;;;;;;5085039;28;20391;-64
2022/06/03 06:00:39;;;;;;;11.45;6.07;;;;;;;;;;5088908;28;20150;-64
2022/06/03 06:03:17;;;;;;;9.73;5.43;;;;;;;;;;5067996;28;20059;-64
2022/06/03 06:05:48;;;;;;;9.88;5.03;;;;;;;;;;5087521;28;20067;-65
2022/06/03 06:08:21;;;;;;;8.00;5.30;;;;;;;;;;5066652;28;20404;-66
2022/06/03 06:11:00;;;;;;;9.77;5.28;;;;;;;;;;5089150;28;20040;-66
2022/06/03 06:13:36;;;;;;;9.52;5.25;;;;;;;;;;5066839;28;20052;-66
2022/06/03 06:16:09;;;;;;;8.70;4.70;;;;;;;;;;5084307;28;20063;-66
2022/06/03 06:18:44;;;;;;;7.63;4.68;;;;;;;;;;5088286;28;20406;-65
2022/06/03 06:21:29;;;;;;;10.05;4.63;;;;;;;;;;5085969;28;20036;-66
2022/06/03 06:24:08;;;;;;;9.30;4.53;;;;;;;;;;5084375;28;20044;-66
2022/06/03 06:26:41;;;;;;;8.50;4.78;;;;;;;;;;5085264;28;20044;-66
2022/06/03 06:29:29;;;;;;;7.65;4.28;;;;;;;;;;5083435;28;20135;-65
2022/06/03 06:31:55;;;;;;;6.55;3.78;;;;;;;;;;5086375;28;20040;-66
2022/06/03 06:34:44;;;;;;;7.10;3.78;;;;;;;;;;5086485;28;20109;-66
2022/06/03 06:37:26;;;;;;;6.90;3.90;;;;;;;;;;5086820;28;20325;-64
2022/06/03 06:40:06;;;;;;;8.45;3.90;;;;;;;;;;5087076;28;20055;-64
2022/06/03 06:42:38;;;;;;;6.80;3.17;;;;;;;;;;5085752;28;20044;-64
2022/06/03 06:45:22;;;;;;;6.32;3.58;;;;;;;;;;5085463;28;20055;-65
2022/06/03 06:47:54;;;;;;;5.85;3.65;;;;;;;;;;5083614;28;20072;-65
2022/06/03 06:50:25;;;;;;;9.27;4.65;;;;;;;;;;5088260;28;20071;-65
2022/06/03 06:52:56;;;;;;;5.68;3.55;;;;;;;;;;5069367;28;20460;-65
2022/06/03 06:55:33;;;;;;;7.97;3.80;;;;;;;;;;5076189;28;20040;-65
2022/06/03 06:58:02;;;;;;;17.33;4.65;;;;;;;;;;5076192;28;20044;-64
2022/06/03 07:00:32;;;;;;;5.18;3.05;;;;;;;;;;5083543;28;20041;-65
2022/06/03 07:03:04;;;;;;;6.18;2.92;;;;;;;;;;5083591;28;20407;-64
2022/06/03 07:05:43;;;;;;;6.72;3.05;;;;;;;;;;5069258;28;20490;-64
2022/06/03 07:08:12;;;;;;;6.05;3.88;;;;;;;;;;5083506;28;20040;-65
2022/06/03 07:10:45;;;;;;;8.52;3.70;;;;;;;;;;5069133;28;20325;-64
2022/06/03 07:13:15;;;;;;;7.35;3.53;;;;;;;;;;5085671;28;20096;-64
2022/06/03 07:15:51;;;;;;;5.18;3.30;;;;;;;;;;5088943;28;20060;-64
2022/06/03 07:21:14;;;;;;;7.65;3.03;;;;;;;;;;5070788;28;20040;-65
2022/06/03 07:23:51;;;;;;;6.40;2.90;;;;;;;;;;5090527;28;20138;-64
2022/06/03 07:26:22;;;;;;;4.78;2.45;;;;;;;;;;5088363;28;20502;-64
2022/06/03 07:28:55;;;;;;;7.45;2.88;;;;;;;;;;5090238;28;20783;-64
2022/06/03 07:31:22;;;;;;;5.82;2.72;;;;;;;;;;5089540;28;20102;-64
2022/06/03 07:33:48;;;;;;;4.25;2.42;;;;;;;;;;5090865;28;20036;-64
2022/06/03 07:36:22;;;;;;;4.05;2.10;;;;;;;;;;5066184;28;20051;-64
2022/06/03 07:38:55;;;;;;;4.60;2.72;;;;;;;;;;5090450;28;20050;-64
2022/06/03 07:41:27;;;;;;;4.07;2.20;;;;;;;;;;5085167;28;20087;-64
2022/06/03 07:43:59;;;;;;;7.78;2.97;;;;;;;;;;5068368;28;20143;-64
2022/06/03 07:46:28;;;;;;;4.90;2.85;;;;;;;;;;5109317;28;20039;-65
2022/06/03 07:48:55;;;;;;;5.90;2.85;;;;;;;;;;5104849;28;20085;-64
2022/06/03 07:51:26;;;;;;;5.65;3.00;;;;;;;;;;5109064;28;20145;-65
2022/06/03 07:54:05;;;;;;;5.10;2.42;;;;;;;;;;5110308;28;20042;-64
2022/06/03 07:56:32;;;;;;;4.90;2.92;;;;;;;;;;5103274;28;20036;-64
2022/06/03 07:59:09;;;;;;;8.35;2.20;;;;;;;;;;5106786;28;20044;-64
2022/06/03 08:01:37;;;;;;;5.07;2.70;;;;;;;;;;5110612;28;20051;-64
2022/06/03 08:04:05;;;;;;;4.70;1.92;;;;;;;;;;5105395;28;20039;-64
2022/06/03 08:12:07;;;;;;;5.13;2.70;;;;;;;;;;5107053;28;20062;-65
2022/06/03 08:14:33;;;;;;;4.90;2.38;;;;;;;;;;5106347;28;20039;-64
2022/06/03 08:17:03;;;;;;;4.50;2.53;;;;;;;;;;5107624;28;20399;-65
2022/06/03 08:19:31;;;;;;;6.05;2.45;;;;;;;;;;5101954;28;20472;-65
2022/06/03 08:22:00;;;;;;;6.88;2.40;;;;;;;;;;5104064;28;20399;-66
2022/06/03 08:24:28;;;;;;;6.88;2.47;;;;;;;;;;5105777;28;20096;-64
2022/06/03 08:26:57;;;;;;;5.03;2.28;;;;;;;;;;5106382;28;20055;-64
2022/06/03 08:29:28;;;;;;;5.53;2.33;;;;;;;;;;5109271;28;20078;-65
2022/06/03 08:31:55;;;;;;;4.38;2.33;;;;;;;;;;5102045;28;20118;-64
2022/06/03 08:34:25;;;;;;;5.35;2.28;;;;;;;;;;5109405;28;20142;-64
2022/06/03 08:36:52;;;;;;;5.03;2.05;;;;;;;;;;5107948;28;20039;-64
2022/06/03 08:39:21;;;;;;;5.53;2.28;;;;;;;;;;5109288;28;20039;-64
2022/06/03 08:41:56;;;;;;;5.35;1.92;;;;;;;;;;5108617;28;20043;-64
2022/06/03 08:44:30;;;;;;;3.70;1.80;;;;;;;;;;5091863;28;20044;-65
2022/06/03 08:47:01;;;;;;;4.55;2.17;;;;;;;;;;5085942;28;20036;-64
2022/06/03 08:49:29;;;;;;;6.63;2.53;;;;;;;;;;5089707;28;21543;-64
2022/06/03 08:52:00;;;;;;;8.50;2.38;;;;;;;;;;5082376;28;20079;-64
2022/06/03 08:54:43;;;;;;;5.95;2.30;;;;;;;;;;5087335;28;20064;-63
2022/06/03 08:57:13;;;;;;;4.75;2.08;;;;;;;;;;5085343;28;20032;-64
2022/06/03 08:59:41;;;;;;;4.55;2.00;;;;;;;;;;5086010;28;20138;-64
2022/06/03 09:02:10;;;;;;;4.70;2.10;;;;;;;;;;5083042;28;20047;-64
2022/06/03 09:04:56;;;;;;;5.22;1.77;;;;;;;;;;5065391;28;20554;-64
2022/06/03 09:07:24;;;;;;;5.80;1.80;;;;;;;;;;5083301;28;20040;-64
2022/06/03 09:10:10;;;;;;;5.40;2.40;;;;;;;;;;5084503;28;20052;-64
2022/06/03 09:12:37;;;;;;;5.28;2.05;;;;;;;;;;5084878;28;20094;-64
2022/06/03 09:15:08;;;;;;;4.78;2.33;;;;;;;;;;5084897;28;20032;-65
2022/06/03 09:17:37;;;;;;;3.92;2.33;;;;;;;;;;5081785;28;20055;-64
2022/06/03 09:20:08;;;;;;;6.13;2.10;;;;;;;;;;5049153;28;20523;-64
2022/06/03 09:22:34;;;;;;;4.78;2.35;;;;;;;;;;5082880;28;20043;-64
2022/06/03 09:25:02;;;;;;;5.10;2.30;;;;;;;;;;5085723;28;20377;-64
2022/06/03 09:27:30;;;;;;;8.02;2.50;;;;;;;;;;5086735;28;20048;-64
2022/06/03 09:29:58;;;;;;;5.32;2.10;;;;;;;;;;5058203;28;20044;-64
2022/06/03 09:32:26;;;;;;;4.78;1.77;;;;;;;;;;5081208;28;20068;-64
2022/06/03 09:34:56;;;;;;;4.38;2.20;;;;;;;;;;5083826;28;20041;-64
2022/06/03 09:37:24;;;;;;;5.50;2.08;;;;;;;;;;5083595;28;20036;-64
2022/06/03 09:39:51;;;;;;;6.03;2.55;;;;;;;;;;5065645;28;20480;-65
2022/06/03 09:42:19;;;;;;;4.65;1.98;;;;;;;;;;5087920;28;20119;-64
2022/06/03 09:44:47;;;;;;;6.75;1.98;;;;;;;;;;5085807;28;20403;-64
2022/06/03 09:47:15;;;;;;;5.95;1.92;;;;;;;;;;5086388;28;20048;-65
2022/06/03 09:49:45;;;;;;;5.65;2.47;;;;;;;;;;5085711;28;20079;-65
2022/06/03 09:52:13;;;;;;;5.18;2.45;;;;;;;;;;5087511;28;20100;-64
2022/06/03 09:54:40;;;;;;;5.20;2.67;;;;;;;;;;5066165;28;20090;-64
2022/06/03 09:57:09;;;;;;;5.75;2.00;;;;;;;;;;5085632;28;20040;-64
2022/06/03 09:59:37;;;;;;;6.05;2.10;;;;;;;;;;5072223;28;20036;-65
2022/06/03 10:02:04;;;;;;;4.60;2.17;;;;;;;;;;5072436;28;20053;-64
2022/06/03 10:04:31;;;;;;;4.55;2.17;;;;;;;;;;5060998;28;20044;-65
2022/06/03 10:07:00;;;;;;;4.80;2.13;;;;;;;;;;5084823;28;20044;-64
2022/06/03 10:17:47;;;;;;;6.22;1.88;;;;;;;;;;5067250;28;20044;-65
2022/06/03 10:20:14;;;;;;;5.55;2.13;;;;;;;;;;5065105;28;20035;-65
2022/06/03 10:22:41;;;;;;;4.05;2.30;;;;;;;;;;5085776;28;20119;-65
2022/06/03 10:25:08;;;;;;;3.97;1.90;;;;;;;;;;5085890;28;20036;-65
2022/06/03 10:27:34;;;;;;;5.40;2.30;;;;;;;;;;5085734;28;20368;-65
2022/06/03 10:30:03;;;;;;;5.00;2.45;;;;;;;;;;5084832;28;20633;-64
2022/06/03 10:32:29;;;;;;;5.32;2.13;;;;;;;;;;5084658;28;20043;-65
2022/06/03 10:34:57;;;;;;;5.97;2.30;;;;;;;;;;5085151;28;20035;-65
2022/06/03 10:37:26;;;;;;;4.65;2.40;;;;;;;;;;5085421;28;20043;-65
2022/06/03 10:39:55;;;;;;;3.67;1.88;;;;;;;;;;5082504;28;20036;-65
2022/06/03 10:42:22;;;;;;;4.18;1.90;;;;;;;;;;5075700;28;20044;-65
2022/06/03 10:44:49;;;;;;;4.90;1.92;;;;;;;;;;5086502;28;20147;-65
2022/06/03 10:47:17;;;;;;;3.17;1.60;;;;;;;;;;5090916;28;20036;-65
2022/06/03 10:49:54;;;;;;;3.28;1.50;;;;;;;;;;5092394;28;20119;-65
2022/06/03 11:01:06;;;;;;;4.05;1.90;;;;;;;;;;5088254;28;20036;-65
2022/06/03 11:03:33;;;;;;;3.45;1.60;;;;;;;;;;5088598;28;20119;-64
2022/06/03 11:06:07;;;;;;;4.47;2.17;;;;;;;;;;5085423;28;20040;-64
2022/06/03 11:08:50;;;;;;;7.80;1.92;;;;;;;;;;5087913;28;20526;-64
2022/06/03 11:11:30;;;;;;;6.97;1.98;;;;;;;;;;5070624;28;20139;-65
2022/06/03 11:13:56;;;;;;;6.05;2.35;;;;;;;;;;5093293;28;20092;-65
2022/06/03 11:16:24;;;;;;;4.75;1.90;;;;;;;;;;5068603;28;20404;-65
2022/06/03 11:18:50;;;;;;;4.05;2.10;;;;;;;;;;5085593;28;20043;-64
2022/06/03 11:21:16;;;;;;;6.28;2.28;;;;;;;;;;5080939;28;20085;-65
2022/06/03 11:23:43;;;;;;;7.90;2.50;;;;;;;;;;5085672;28;20036;-65
2022/06/03 11:26:09;;;;;;;6.22;2.50;;;;;;;;;;5089909;28;20074;-65
2022/06/03 11:28:39;;;;;;;6.85;2.35;;;;;;;;;;5083405;28;20048;-65
2022/06/03 11:31:06;;;;;;;4.47;1.92;;;;;;;;;;5064224;28;20099;-64
2022/06/03 11:33:37;;;;;;;4.22;1.95;;;;;;;;;;5086496;28;20054;-65
2022/06/03 11:36:05;;;;;;;4.78;1.95;;;;;;;;;;5083621;28;20059;-65
2022/06/03 11:38:38;;;;;;;6.07;2.30;;;;;;;;;;5086352;28;20048;-65
2022/06/03 11:41:04;;;;;;;;;;;;;;;;;;5087707;28;20052;-64
2022/06/03 11:43:36;;;;;;;4.05;2.08;;;;;;;;;;5083355;28;19931;-64
2022/06/03 11:46:05;;;;;;;4.88;2.25;;;;;;;;;;5087939;28;20040;-64
2022/06/03 11:48:34;;;;;;;7.00;2.22;;;;;;;;;;5068981;28;20488;-65
2022/06/03 11:51:01;;;;;;;7.20;2.30;;;;;;;;;;5083306;28;20353;-64
2022/06/03 11:53:30;;;;;;;6.10;2.13;;;;;;;;;;5082465;28;20058;-66
2022/06/03 11:56:00;;;;;;;4.32;2.20;;;;;;;;;;5067246;28;20090;-66
2022/06/03 11:58:34;;;;;;;6.93;2.50;;;;;;;;;;5061025;28;20080;-66
2022/06/03 12:01:04;;;;;;;5.82;2.00;;;;;;;;;;5084468;28;20039;-66
2022/06/03 12:03:37;;;;;;;6.18;1.70;;;;;;;;;;5083520;28;20036;-65
2022/06/03 12:06:06;;;;;;;4.53;1.90;;;;;;;;;;5086218;28;20040;-65
2022/06/03 12:08:34;;;;;;;7.03;2.80;;;;;;;;;;5087362;28;20089;-66
2022/06/03 12:11:04;;;;;;;7.28;2.30;;;;;;;;;;5063922;28;20454;-66
2022/06/03 12:13:32;;;;;;;5.82;1.90;;;;;;;;;;5085916;28;20581;-66
2022/06/03 12:16:01;;;;;;;7.05;1.95;;;;;;;;;;5084498;28;20028;-66
2022/06/03 12:18:28;;;;;;;6.00;2.13;;;;;;;;;;5065099;28;20045;-66
2022/06/03 12:20:55;;;;;;;7.07;2.50;;;;;;;;;;5083858;28;20051;-65
2022/06/03 12:23:22;;;;;;;4.85;1.70;;;;;;;;;;5082443;28;20066;-66
2022/06/03 12:25:51;;;;;;;9.50;2.17;;;;;;;;;;5085744;28;20486;-65
2022/06/03 12:28:18;;;;;;;9.80;2.22;;;;;;;;;;5066186;28;20096;-66
2022/06/03 12:30:48;;;;;;;6.38;2.08;;;;;;;;;;5067769;28;20067;-66
2022/06/03 12:33:22;;;;;;;7.45;2.08;;;;;;;;;;5078380;28;20178;-66
2022/06/03 12:35:48;;;;;;;7.32;2.03;;;;;;;;;;5086818;28;20069;-65
2022/06/03 12:38:19;;;;;;;3.78;1.67;;;;;;;;;;5084991;28;20048;-66
2022/06/03 12:40:51;;;;;;;6.05;1.88;;;;;;;;;;5084873;28;20051;-66
2022/06/03 12:43:23;;;;;;;7.35;1.85;;;;;;;;;;5081035;28;20049;-66
2022/06/03 12:45:58;;;;;;;7.55;1.65;;;;;;;;;;5078344;28;20040;-66
2022/06/03 12:48:35;;;;;;;9.02;1.58;;;;;;;;;;5077515;28;20047;-66
2022/06/03 12:51:12;;;;;;;6.90;1.35;;;;;;;;;;5079193;28;20238;-66
2022/06/03 12:53:41;;;;;;;5.78;1.48;;;;;;;;;;5073519;28;20090;-66
2022/06/03 12:56:10;;;;;;;3.78;1.30;;;;;;;;;;5082744;28;20055;-65
2022/06/03 12:58:41;;;;;;;8.75;1.50;;;;;;;;;;5077490;28;20058;-66
2022/06/03 13:01:09;;;;;;;4.70;1.42;;;;;;;;;;5081049;28;20040;-65
2022/06/03 13:03:35;;;;;;;3.92;1.30;;;;;;;;;;5085081;28;20119;-66
2022/06/03 13:06:05;;;;;;;5.72;1.60;;;;;;;;;;5079818;28;20506;-66
2022/06/03 13:09:34;;;;;;;5.20;1.23;;;;;;;;;;5078852;28;20048;-66
2022/06/03 13:11:25;;;;;;;5.28;1.40;;;;;;;;;;5081919;28;20484;-66
2022/06/03 13:13:55;;;;;;;3.90;1.40;;;;;;;;;;5084233;28;20079;-66
2022/06/03 13:16:24;;;;;;;4.18;1.20;;;;;;;;;;5063858;28;20049;-65
2022/06/03 13:18:52;;;;;;;6.43;1.40;;;;;;;;;;5081920;28;20121;-66
2022/06/03 13:21:22;;;;;;;6.43;1.58;;;;;;;;;;5076718;28;20082;-65
2022/06/03 13:23:51;;;;;;;3.47;1.17;;;;;;;;;;5079484;28;20090;-65
2022/06/03 13:26:19;;;;;;;3.63;1.00;;;;;;;;;;5083360;28;20395;-65
2022/06/03 13:28:45;;;;;;;4.28;1.33;;;;;;;;;;5062588;28;20545;-65
2022/06/03 13:31:14;;;;;;;5.05;2.10;;;;;;;;;;5081117;28;20043;-65
2022/06/03 13:34:10;;;;;;;5.20;1.50;;;;;;;;;;5082279;28;20101;-65
2022/06/03 13:36:48;;;;;;;5.10;1.58;;;;;;;;;;5082287;28;20048;-66
2022/06/03 13:39:15;;;;;;;5.03;1.10;;;;;;;;;;5084979;28;20044;-65
2022/06/03 13:44:46;;;;;;;5.53;1.00;;;;;;;;;;5073885;28;20135;-65
2022/06/03 13:47:14;;;;;;;5.18;1.00;;;;;;;;;;5069469;28;20134;-65
2022/06/03 13:49:52;;;;;;;4.43;1.10;;;;;;;;;;5062987;28;20419;-65
2022/06/03 13:52:21;;;;;;;4.75;0.90;;;;;;;;;;5079158;28;20384;-66
2022/06/03 13:54:50;;;;;;;3.80;0.90;;;;;;;;;;5087148;28;20387;-65
2022/06/03 13:57:19;;;;;;;5.45;1.00;;;;;;;;;;5082411;28;20083;-65
2022/06/03 13:59:47;;;;;;;3.42;0.75;;;;;;;;;;5079343;28;20098;-65
2022/06/03 14:02:18;;;;;;;2.13;0.68;;;;;;;;;;5078911;28;20036;-65
2022/06/03 14:04:47;;;;;;;7.50;1.20;;;;;;;;;;5084784;28;20067;-66
2022/06/03 14:07:23;;;;;;;3.63;0.88;;;;;;;;;;5075424;28;20044;-65
2022/06/03 14:09:52;;;;;;;3.42;1.00;;;;;;;;;;5064217;28;20075;-65
2022/06/03 14:12:21;;;;;;;5.20;1.20;;;;;;;;;;5077430;28;20052;-65
2022/06/03 14:15:01;;;;;;;2.60;0.65;;;;;;;;;;5056159;28;20060;-65
2022/06/03 14:17:30;;;;;;;5.82;0.90;;;;;;;;;;5057674;28;20101;-65
2022/06/03 14:19:59;;;;;;;5.05;0.70;;;;;;;;;;5080973;28;20036;-65
2022/06/03 14:22:33;;;;;;;3.22;0.80;;;;;;;;;;5062075;28;20074;-65
2022/06/03 14:25:06;;;;;;;5.70;0.70;;;;;;;;;;5076018;28;21685;-65
2022/06/03 14:27:35;;;;;;;3.33;0.90;;;;;;;;;;5082427;28;20053;-66
2022/06/03 14:30:14;;;;;;;2.70;0.70;;;;;;;;;;5078750;28;20132;-65
2022/06/03 14:32:41;;;;;;;4.00;0.95;;;;;;;;;;5080561;28;20040;-65
2022/06/03 14:35:10;;;;;;;3.70;0.85;;;;;;;;;;5080840;28;20043;-65
2022/06/03 14:37:43;;;;;;;5.40;0.80;;;;;;;;;;5081850;28;20086;-65
2022/06/03 14:40:14;;;;;;;4.30;0.75;;;;;;;;;;5079536;28;20052;-65
2022/06/03 14:42:41;;;;;;;2.88;0.82;;;;;;;;;;5060345;28;20044;-65
2022/06/03 14:45:09;;;;;;;3.67;1.08;;;;;;;;;;5079377;28;20041;-65
2022/06/03 14:47:38;;;;;;;5.90;1.00;;;;;;;;;;5079865;28;20048;-65
2022/06/03 14:50:08;;;;;;;3.78;0.82;;;;;;;;;;5059595;28;20075;-65
2022/06/03 14:52:37;;;;;;;2.22;0.70;;;;;;;;;;5075362;28;20205;-65
2022/06/03 14:55:09;;;;;;;4.60;1.08;;;;;;;;;;5073429;28;20082;-65
2022/06/03 14:57:39;;;;;;;2.67;0.77;;;;;;;;;;5074952;28;20403;-65
2022/06/03 15:00:18;;;;;;;4.88;1.40;;;;;;;;;;5074049;28;20076;-64
2022/06/03 15:02:49;;;;;;;4.68;1.17;;;;;;;;;;5077536;28;20553;-65
2022/06/03 15:05:20;;;;;;;3.80;1.00;;;;;;;;;;5081986;28;20074;-65
2022/06/03 15:07:50;;;;;;;5.05;1.20;;;;;;;;;;5081140;28;20044;-65
2022/06/03 15:10:20;;;;;;;4.13;1.38;;;;;;;;;;5078747;28;20039;-65
2022/06/03 15:12:54;;;;;;;6.38;1.30;;;;;;;;;;5083515;28;20397;-65
2022/06/03 15:15:22;;;;;;;3.05;0.82;;;;;;;;;;5081816;28;20036;-65
2022/06/03 15:17:49;;;;;;;5.13;1.30;;;;;;;;;;5059505;28;20075;-65
2022/06/03 15:20:15;;;;;;;6.20;0.98;;;;;;;;;;5077965;28;20044;-65
2022/06/03 15:22:47;;;;;;;4.13;0.88;;;;;;;;;;5066530;28;20080;-65
2022/06/03 15:25:13;;;;;;;3.67;1.10;;;;;;;;;;5080879;28;20086;-65
2022/06/03 15:27:46;;;;;;;3.90;1.00;;;;;;;;;;5081540;28;20046;-65
2022/06/03 15:30:17;;;;;;;4.13;1.20;;;;;;;;;;5090702;28;20125;-65
2022/06/03 15:32:44;;;;;;;5.22;1.58;;;;;;;;;;5079489;28;20364;-65
2022/06/03 15:35:22;;;;;;;4.45;1.02;;;;;;;;;;5080413;28;20037;-65
2022/06/03 15:37:49;;;;;;;4.03;1.02;;;;;;;;;;5080896;28;20059;-65
2022/06/03 15:40:23;;;;;;;6.03;1.00;;;;;;;;;;5078506;28;20040;-65
2022/06/03 15:42:50;;;;;;;6.90;1.27;;;;;;;;;;5059498;28;20115;-65
2022/06/03 15:45:38;;;;;;;4.68;1.48;;;;;;;;;;5102006;28;20067;-65